Hauptseite
METAR-TAF:

METAR-TAF

Flughäfen :

Braunschweig, Deutschland

Flughafen Braunschweig-Wolfsburg

Breite: 52-18N, Länge: 010-27E, Höhe: 81 m

Beobachtung

Neuester Wetterbericht von vor 27 Minuten, um 13:20 UTC
Wind 12 kt aus Ost, Böen bis zu 22 kt, variierte zwischen Nord und Ost/Südost
Temperatur 1°C
Luftfeuchtigkeit 44%
Luftdruck 1029 hPa
Sichtweite 10 km oder mehr
Aufgelockert bewölkt in der Höhe von 4200 ft

METAR: EDVE 241320Z 08012G22KT 010V120 9999 SCT042 01/M10 Q1029

Zeit: 14:47 (13:47 UTC)

Prognose

Neuester Wetterbericht von vor 2 Stunden und 47 Minuten, um 11:00 UTC
Gültige Prognose vom 24 um 12 UTC bis 24 um 21 UTC
Wind 10 kt aus Ost
Sichtweite 10 km oder mehr
Aufgelockert bewölkt in der Höhe von 3000 ft
Zeitweise
vom 24 um 12 UTC bis 24 um 19 UTC
Wind 15 kt aus Ost, Böen bis zu 25 kt

TAF: EDVE 241100Z 2412/2421 08010KT 9999 SCT030 TEMPO 2412/2419 08015G25KT

Wetterbeobachtungen und Prognosen von mehr als 4000 Flughäfen (METAR und TAF Bericht).

Die verfügbaren Stationen werden durch gelbe und rote Markierungen auf der Karte dargestellt.

Führen Sie die Maus auf sie, um den Namen der Station zu sehen.

Darauf klicken, um die Beobachtung von Wetterbeobachtungen und Prognosen zu sehen.

Um die Karte zu ändern : klicken Sie auf den grünen Tasten mit einem schwarzen Kreuz Zum Vergrößern, auf den grünen Button mit einem Gedankenstrich zu verkleinern, oder auf die grünen Pfeile für benachbarte Karten.


METAR-TAF: